Songa Wave — ZGGP4 — position and weather

sailwx.info

Track history (hours):
 
Tides and Currents Weather Stations Pressure Air Temp Water Temp Dewpoint Dewpoint Depression Visibility Wind Speed Wind Dir Waves Ship Positions

Songa Wave

Last reported at 2017-Dec-11 03:42 UTC. Time now 2017-Dec-13 19:00 UTC.
Position N 25°27' W 079°37'.

Length 200 m; draft 12.9 m.

Type: Cargo ship. MMSI: 319116900.

Date/timePositionNaut miles runAvg speedWind from/ knotsBaromVisibWave heightAir tempDewpointWater temp
2017-Dec-11 03:42N 25°27' W 079°37'410.8
2017-Dec-11 03:20N 25°31' W 079°37'410.9
2017-Dec-11 03:00N 25°34' W 079°36'510.9
2017-Dec-11 02:30N 25°40' W 079°35'510.8
2017-Dec-11 02:00N 25°45' W 079°34'510.9
2017-Dec-11 01:30N 25°51' W 079°34'510.9
2017-Dec-11 01:00N 25°56' W 079°33'510.9
2017-Dec-11 00:30N 26°01' W 079°33'510.5
2017-Dec-11 00:00N 26°07' W 079°32'510.3
2017-Dec-10 23:30N 26°12' W 079°31'  
Track history (hours):
 
Tides and Currents Weather Stations Pressure Air Temp Water Temp Dewpoint Dewpoint Depression Visibility Wind Speed Wind Dir Waves Ship Positions

Songa Wave

Last reported at 2017-Dec-11 03:42 UTC. Time now 2017-Dec-13 19:00 UTC.
Position N 25°27' W 079°37'.

Length 200 m; draft 12.9 m.

Type: Cargo ship. MMSI: 319116900.

Date/timePositionNaut miles runAvg speedWind from/ knotsBaromVisibWave heightAir tempDewpointWater temp
2017-Dec-11 03:42N 25°27' W 079°37'410.8
2017-Dec-11 03:20N 25°31' W 079°37'410.9
2017-Dec-11 03:00N 25°34' W 079°36'510.9
2017-Dec-11 02:30N 25°40' W 079°35'510.8
2017-Dec-11 02:00N 25°45' W 079°34'510.9
2017-Dec-11 01:30N 25°51' W 079°34'510.9
2017-Dec-11 01:00N 25°56' W 079°33'510.9
2017-Dec-11 00:30N 26°01' W 079°33'510.5
2017-Dec-11 00:00N 26°07' W 079°32'510.3
2017-Dec-10 23:30N 26°12' W 079°31'  

Dump ship's entire track history